Terminal Aerodrome Forecast
Issued by NWS Detroit/Pontiac, MI

Home | Current Version | Previous Version | Text Only | Print | Product List | Glossary On
Versions: 1 2 3 4 5 6 7 8 9 10 11 12 13 14 15 16 17 18 19 20 21 22 23 24
000
FTUS43 KDTX 172000 AAA
TAFDTW
TAF AMD
KDTW 172033Z 1721/1824 26007KT P6SM SCT060
     FM180200 VRB03KT P6SM FEW060
     FM181100 35007KT 6SM BR SCT010 BKN040
     FM181500 03008KT P6SM BKN035=

USA.gov is the U.S. government's official web portal to all federal, state and local government web resources and services.